Bogard Atmospheric Data: 07/12/2018 Summary  Detailed Graphs  Station List

  Temperature     Wind Precipitation Visibility
Timestamp Wet
Bulb
Dew-
point
24-hr
Max
24-hr
Min
Relative
Humidity
Atmospheric
Pressure
Avg
Speed
Avg
Dir
Spot
Speed
Spot
Dir
Max
Speed
Max
Dir
  Rate Situation Start End 1 hr 3 hr 6 hr 12 hr 24 hr   Situation
Date Time °F °F °F °F % in Hg mph ° mph ° mph ° Y/N in/hr text Date Time Date Time in in in in in mi text
07/12/2018 12:01 AM 46.76 36.32 88.52 38.66 49.0 Not Reported 0.67 W 0.22 W 1.12 W x x Error:Lookup     0.000 0.000 0.000 0.000 0.000 Not Reported Not Reported
07/12/2018 12:16 AM 46.40 36.14 88.52 38.66 50.0 Not Reported 0.67 W 0.22 W 1.79 W x x Error:Lookup     0.000 0.000 0.000 0.000 0.000 Not Reported Not Reported
07/12/2018 12:31 AM 46.22 36.32 88.52 38.66 51.0 Not Reported 0.45 W 0.00 W 1.57 W x x Error:Lookup     0.000 0.000 0.000 0.000 0.000 Not Reported Not Reported
07/12/2018 12:46 AM 46.04 36.32 88.52 38.66 51.0 Not Reported 0.45 W 0.00 W 1.79 W x x Error:Lookup     0.000 0.000 0.000 0.000 0.000 Not Reported Not Reported
07/12/2018 01:02 AM 45.32 35.96 88.52 38.66 52.0 Not Reported 0.00 NW 0.00 NW 0.89 NW x x Error:Lookup     0.000 0.000 0.000 0.000 0.000 Not Reported Not Reported
07/12/2018 01:16 AM 44.96 35.96 88.52 38.66 54.0 Not Reported 0.00 W 0.00 W 1.34 W x x Error:Lookup     0.000 0.000 0.000 0.000 0.000 Not Reported Not Reported
07/12/2018 01:31 AM 44.06 35.60 88.52 38.66 56.0 Not Reported 0.00 SE 0.00 SE 1.57 SE x x Error:Lookup     0.000 0.000 0.000 0.000 0.000 Not Reported Not Reported
07/12/2018 01:46 AM 43.52 35.60 88.52 38.66 58.0 Not Reported 0.00 SE 0.00 S 0.00 x x x Error:Lookup     0.000 0.000 0.000 0.000 0.000 Not Reported Not Reported
07/12/2018 02:02 AM 43.34 35.78 88.52 38.66 60.0 Not Reported 0.00 SW 0.00 SW 0.89 SW x x Error:Lookup     0.000 0.000 0.000 0.000 0.000 Not Reported Not Reported
07/12/2018 02:16 AM 43.52 36.50 88.52 38.66 61.0 Not Reported 0.89 NW 1.57 NW 2.01 NW x x Error:Lookup     0.000 0.000 0.000 0.000 0.000 Not Reported Not Reported
07/12/2018 02:31 AM 43.16 36.50 88.52 38.66 63.0 Not Reported 0.00 NW 0.00 NW 1.12 NW x x Error:Lookup     0.000 0.000 0.000 0.000 0.000 Not Reported Not Reported
07/12/2018 02:46 AM 42.62 36.14 88.52 38.66 64.0 Not Reported 0.45 W 0.00 W 3.13 SW x x Error:Lookup     0.000 0.000 0.000 0.000 0.000 Not Reported Not Reported
07/12/2018 03:01 AM 41.90 35.42 88.52 38.66 64.0 Not Reported 0.00 NW 0.00 NW 0.89 NE x x Error:Lookup     0.000 0.000 0.000 0.000 0.000 Not Reported Not Reported
07/12/2018 03:16 AM 42.44 36.50 88.52 38.66 66.0 Not Reported 0.00 W 0.00 W 2.91 W x x Error:Lookup     0.000 0.000 0.000 0.000 0.000 Not Reported Not Reported
07/12/2018 03:31 AM 41.72 35.78 88.52 38.66 66.0 Not Reported 0.00 E 0.00 E 1.34 E x x Error:Lookup     0.000 0.000 0.000 0.000 0.000 Not Reported Not Reported
07/12/2018 03:46 AM 41.72 36.32 88.52 38.66 69.0 Not Reported 1.12 E 0.67 W 1.57 E x x Error:Lookup     0.000 0.000 0.000 0.000 0.000 Not Reported Not Reported
07/12/2018 04:01 AM 41.72 36.50 88.52 38.66 70.0 Not Reported 0.00 NW 0.00 NW 1.34 N x x Error:Lookup     0.000 0.000 0.000 0.000 0.000 Not Reported Not Reported
07/12/2018 04:16 AM 41.72 36.86 88.52 38.66 71.0 Not Reported 0.00 N 0.00 N 1.79 NW x x Error:Lookup     0.000 0.000 0.000 0.000 0.000 Not Reported Not Reported
07/12/2018 04:31 AM 39.56 34.52 88.52 38.66 71.0 Not Reported 1.12 E 0.22 E 2.46 E x x Error:Lookup     0.000 0.000 0.000 0.000 0.000 Not Reported Not Reported
07/12/2018 04:47 AM 39.92 35.42 88.52 38.66 74.0 Not Reported 1.12 W 1.79 W 2.01 W x x Error:Lookup     0.000 0.000 0.000 0.000 0.000 Not Reported Not Reported
07/12/2018 05:01 AM 40.64 36.32 88.52 38.66 74.0 Not Reported 1.57 NE 1.34 NE 1.79 W x x Error:Lookup     0.000 0.000 0.000 0.000 0.000 Not Reported Not Reported
07/12/2018 05:17 AM 40.46 36.14 88.52 38.66 75.0 Not Reported 0.89 NW 0.22 NW 1.34 NW x x Error:Lookup     0.000 0.000 0.000 0.000 0.000 Not Reported Not Reported
07/12/2018 05:32 AM 39.92 35.96 88.52 38.66 76.0 Not Reported 0.00 NW 0.00 NW 0.00 x x x Error:Lookup     0.000 0.000 0.000 0.000 0.000 Not Reported Not Reported
07/12/2018 05:46 AM 39.56 35.60 88.52 42.44 76.0 Not Reported 0.00 NW 0.00 NW 0.00 x x x Error:Lookup     0.000 0.000 0.000 0.000 0.000 Not Reported Not Reported
07/12/2018 06:01 AM 39.74 35.78 88.52 42.44 76.0 Not Reported 0.00 NW 0.00 NW 0.00 x x x Error:Lookup     0.000 0.000 0.000 0.000 0.000 Not Reported Not Reported
07/12/2018 06:16 AM 40.46 36.86 88.52 42.44 77.0 Not Reported 0.00 NW 0.00 NW 0.00 x x x Error:Lookup     0.000 0.000 0.000 0.000 0.000 Not Reported Not Reported
07/12/2018 06:31 AM 41.72 37.22 88.52 42.44 72.0 Not Reported 0.00 E 0.00 E 2.68 E x x Error:Lookup     0.000 0.000 0.000 0.000 0.000 Not Reported Not Reported
07/12/2018 06:46 AM 43.34 37.40 88.52 42.44 66.0 Not Reported 0.89 E 0.22 NE 1.57 E x x Error:Lookup     0.000 0.000 0.000 0.000 0.000 Not Reported Not Reported
07/12/2018 07:02 AM 45.32 38.30 88.52 42.44 60.0 Not Reported 0.45 E 1.12 NE 1.34 E x x Error:Lookup     0.000 0.000 0.000 0.000 0.000 Not Reported Not Reported
07/12/2018 07:16 AM 46.94 38.66 88.52 42.44 56.0 Not Reported 0.45 E 0.89 NE 1.12 NE x x Error:Lookup     0.000 0.000 0.000 0.000 0.000 Not Reported Not Reported
07/12/2018 07:33 AM 48.74 38.84 88.52 42.44 50.0 Not Reported 0.45 N 0.45 N 1.79 E x x Error:Lookup     0.000 0.000 0.000 0.000 0.000 Not Reported Not Reported
07/12/2018 07:46 AM 50.00 39.38 88.52 42.44 47.0 Not Reported 0.00 E 0.00 NE 2.24 E x x Error:Lookup     0.000 0.000 0.000 0.000 0.000 Not Reported Not Reported
07/12/2018 08:01 AM 51.44 40.28 88.52 42.44 45.0 Not Reported 1.34 E 1.79 E 2.01 E x x Error:Lookup     0.000 0.000 0.000 0.000 0.000 Not Reported Not Reported
07/12/2018 08:17 AM 52.70 40.64 88.52 42.44 42.0 Not Reported 1.79 SE 1.79 E 2.68 SE x x Error:Lookup     0.000 0.000 0.000 0.000 0.000 Not Reported Not Reported
07/12/2018 08:32 AM 53.96 40.82 88.52 42.44 39.0 Not Reported 0.67 E 0.00 E 2.91 E x x Error:Lookup     0.000 0.000 0.000 0.000 0.000 Not Reported Not Reported
07/12/2018 08:46 AM 55.76 40.28 88.52 42.44 34.0 Not Reported 0.00 SE 1.79 NE 2.24 E x x Error:Lookup     0.000 0.000 0.000 0.000 0.000 Not Reported Not Reported
07/12/2018 09:02 AM 56.48 39.20 88.52 42.44 30.0 Not Reported 2.01 NE 2.24 NE 3.80 E x x Error:Lookup     0.000 0.000 0.000 0.000 0.000 Not Reported Not Reported
07/12/2018 09:18 AM 58.10 39.56 88.52 42.44 28.0 Not Reported 0.22 S 0.00 E 3.58 SE x x Error:Lookup     0.000 0.000 0.000 0.000 0.000 Not Reported Not Reported
07/12/2018 09:32 AM 58.82 38.84 88.52 42.44 26.0 Not Reported 2.46 E 2.24 E 3.80 S x x Error:Lookup     0.000 0.000 0.000 0.000 0.000 Not Reported Not Reported
07/12/2018 09:47 AM 59.54 38.12 88.52 42.44 24.0 Not Reported 1.57 S 2.46 NE 4.25 S x x Error:Lookup     0.000 0.000 0.000 0.000 0.000 Not Reported Not Reported
07/12/2018 10:02 AM 59.54 37.94 88.52 42.44 24.0 Not Reported 2.91 SE 6.04 SE 6.49 SE x x Error:Lookup     0.000 0.000 0.000 0.000 0.000 Not Reported Not Reported
07/12/2018 10:16 AM 60.08 38.66 88.52 42.44 24.0 Not Reported 4.92 E 6.04 E 8.28 E x x Error:Lookup     0.000 0.000 0.000 0.000 0.000 Not Reported Not Reported
07/12/2018 10:31 AM 60.98 39.56 88.52 42.44 23.0 Not Reported 0.45 SE 0.00 SE 7.83 SE x x Error:Lookup     0.000 0.000 0.000 0.000 0.000 Not Reported Not Reported
07/12/2018 10:47 AM 61.70 40.10 88.52 42.44 23.0 Not Reported 3.36 S 1.57 S 8.50 S x x Error:Lookup     x 0.000 0.000 0.000 0.000 Not Reported Not Reported
07/12/2018 11:02 AM 62.24 40.64 88.52 42.44 23.0 Not Reported 4.25 SE 3.13 E 8.50 SE x x Error:Lookup     0.000 0.000 0.000 0.000 0.000 Not Reported Not Reported
07/12/2018 11:16 AM 62.42 40.28 88.52 42.44 22.0 Not Reported 2.68 SW 2.46 S 9.84 E x x Error:Lookup     0.000 0.000 0.000 0.000 0.000 Not Reported Not Reported
07/12/2018 11:31 AM 62.60 40.10 88.52 42.44 21.0 Not Reported 4.47 E 6.04 NE 11.86 E x x Error:Lookup     0.000 0.000 0.000 0.000 0.000 Not Reported Not Reported
07/12/2018 11:46 AM 63.68 41.00 88.52 42.44 21.0 Not Reported 4.25 SE 5.37 E 10.96 SE x x Error:Lookup     0.000 0.000 0.000 0.000 0.000 Not Reported Not Reported
07/12/2018 12:02 PM 63.86 40.46 88.52 42.44 20.0 Not Reported 6.04 S 3.58 S 13.20 SE x x Error:Lookup     0.000 0.000 0.000 0.000 0.000 Not Reported Not Reported
07/12/2018 12:18 PM 64.04 40.10 88.52 42.44 20.0 Not Reported 6.04 E 3.13 SE 8.95 SE x x Error:Lookup     0.000 0.000 0.000 0.000 0.000 Not Reported Not Reported
07/12/2018 12:31 PM 64.04 40.10 88.52 42.44 20.0 Not Reported 7.83 S 10.96 SE 11.86 E x x Error:Lookup     0.000 0.000 0.000 0.000 0.000 Not Reported Not Reported
07/12/2018 12:46 PM 65.48 41.54 88.52 42.44 19.0 Not Reported 4.25 E 5.14 S 10.07 SE x x Error:Lookup     0.000 0.000 0.000 0.000 0.000 Not Reported Not Reported
07/12/2018 01:01 PM 64.58 40.46 88.52 42.44 19.0 Not Reported 7.38 S 8.28 S 14.99 E x x Error:Lookup     0.000 0.000 0.000 0.000 0.000 Not Reported Not Reported
07/12/2018 01:16 PM 64.58 39.74 88.52 42.44 19.0 Not Reported 6.93 S 8.28 S 11.63 S x x Error:Lookup     0.000 0.000 0.000 0.000 0.000 Not Reported Not Reported
07/12/2018 01:32 PM 64.94 40.10 88.52 42.44 19.0 Not Reported 3.58 E 4.70 SE 13.20 S x x Error:Lookup     0.000 0.000 0.000 0.000 0.000 Not Reported Not Reported
07/12/2018 01:47 PM 65.48 40.46 88.70 42.44 18.0 Not Reported 4.70 S 5.14 SE 16.78 E x x Error:Lookup     0.000 0.000 0.000 0.000 0.000 Not Reported Not Reported
07/12/2018 02:01 PM 65.30 38.66 89.24 42.44 17.0 Not Reported 6.49 SW 6.93 S 12.75 SW x x Error:Lookup     0.000 0.000 0.000 0.000 0.000 Not Reported Not Reported
07/12/2018 02:16 PM 65.84 38.48 89.24 42.44 16.0 Not Reported 8.95 SE 5.14 E 13.42 S x x Error:Lookup     0.000 0.000 0.000 0.000 0.000 Not Reported Not Reported
07/12/2018 02:31 PM 66.02 37.58 89.60 42.44 16.0 Not Reported 6.04 SE 9.62 SE 11.41 SE x x Error:Lookup     0.000 0.000 0.000 0.000 0.000 Not Reported Not Reported
07/12/2018 02:47 PM 66.20 37.76 89.60 42.44 16.0 Not Reported 5.37 SE 8.50 E 11.86 SE x x Error:Lookup     0.000 0.000 0.000 0.000 0.000 Not Reported Not Reported
07/12/2018 03:01 PM 66.20 37.40 90.50 42.44 15.0 Not Reported 4.92 S 2.01 W 12.97 E x x Error:Lookup     0.000 0.000 0.000 0.000 0.000 Not Reported Not Reported
07/12/2018 03:18 PM 66.02 40.64 90.50 42.44 18.0 Not Reported 7.38 N 8.50 NW 13.20 SW x x Error:Lookup     0.000 0.000 0.000 0.000 0.000 Not Reported Not Reported
07/12/2018 03:32 PM 66.02 41.18 90.50 42.44 18.0 Not Reported 5.37 N 4.03 NE 12.08 NW x x Error:Lookup     0.000 0.000 0.000 0.000 0.000 Not Reported Not Reported
07/12/2018 03:46 PM 66.38 41.90 90.50 42.44 19.0 Not Reported 5.14 NW 2.46 NW 11.41 W x x Error:Lookup     0.000 0.000 0.000 0.000 0.000 Not Reported Not Reported
07/12/2018 04:02 PM 66.20 42.26 90.50 42.44 19.0 Not Reported 7.38 N 4.92 N 14.54 N x x Error:Lookup     0.000 0.000 0.000 0.000 0.000 Not Reported Not Reported
07/12/2018 04:16 PM 65.48 41.54 90.50 42.44 19.0 Not Reported 5.59 W 7.38 NW 15.66 SW x x Error:Lookup     0.000 0.000 0.000 0.000 0.000 Not Reported Not Reported
07/12/2018 04:31 PM 65.84 42.80 90.50 42.44 20.0 Not Reported 6.93 W 1.57 N 14.32 NW x x Error:Lookup     0.000 0.000 0.000 0.000 0.000 Not Reported Not Reported
07/12/2018 04:47 PM 65.84 43.52 90.50 42.44 21.0 Not Reported 5.37 W 4.03 W 15.66 W x x Error:Lookup     0.000 0.000 0.000 0.000 0.000 Not Reported Not Reported
07/12/2018 05:01 PM 66.20 44.06 90.50 42.44 21.0 Not Reported 4.70 NW 12.30 N 10.51 NW x x Error:Lookup     0.000 0.000 0.000 0.000 0.000 Not Reported Not Reported
07/12/2018 05:16 PM 66.02 44.06 90.50 42.44 21.0 Not Reported 5.82 W 9.17 SW 13.87 W x x Error:Lookup     0.000 0.000 0.000 0.000 0.000 Not Reported Not Reported
07/12/2018 05:31 PM 65.84 44.42 90.50 42.44 21.0 Not Reported 6.26 NW 8.72 NW 12.30 W x x Error:Lookup     0.000 0.000 0.000 0.000 0.000 Not Reported Not Reported
07/12/2018 05:46 PM 65.48 43.88 90.50 42.44 21.0 Not Reported 3.80 W 2.68 NE 8.50 NW x x Error:Lookup     0.000 0.000 0.000 0.000 0.000 Not Reported Not Reported
07/12/2018 06:03 PM 64.22 42.62 90.50 42.44 22.0 Not Reported 4.25 W 1.79 W 11.86 NW x x Error:Lookup     0.000 0.000 0.000 0.000 0.000 Not Reported Not Reported
07/12/2018 06:16 PM 63.32 41.54 90.50 42.44 22.0 Not Reported 7.38 W 7.16 W 13.65 NW x x Error:Lookup     0.000 0.000 0.000 0.000 0.000 Not Reported Not Reported
07/12/2018 06:31 PM 63.14 41.36 90.50 42.44 22.0 Not Reported 4.70 W 4.92 NW 12.75 W x x Error:Lookup     0.000 0.000 0.000 0.000 0.000 Not Reported Not Reported
07/12/2018 06:47 PM 61.70 39.56 90.50 42.44 22.0 Not Reported 1.79 W 4.70 W 9.84 N x x Error:Lookup     0.000 0.000 0.000 0.000 0.000 Not Reported Not Reported
07/12/2018 07:02 PM 60.98 39.02 90.50 42.44 23.0 Not Reported 5.14 NW 1.34 NW 10.07 W x x Error:Lookup     0.000 0.000 0.000 0.000 0.000 Not Reported Not Reported
07/12/2018 07:17 PM 60.44 38.30 90.50 42.44 23.0 Not Reported 2.01 SW 1.34 W 10.74 NW x x Error:Lookup     0.000 0.000 0.000 0.000 0.000 Not Reported Not Reported
07/12/2018 07:31 PM 60.26 37.94 90.50 42.44 23.0 Not Reported 2.01 SW 2.68 SW 5.14 S x x Error:Lookup     0.000 0.000 0.000 0.000 0.000 Not Reported Not Reported
07/12/2018 07:46 PM 59.72 38.12 90.50 42.44 24.0 Not Reported 1.12 W 1.12 W 1.57 W x x Error:Lookup     0.000 0.000 0.000 0.000 0.000 Not Reported Not Reported
07/12/2018 08:01 PM 58.46 37.40 90.50 42.44 25.0 Not Reported 0.00 NW 0.00 NW 2.46 W x x Error:Lookup     0.000 0.000 0.000 0.000 0.000 Not Reported Not Reported
07/12/2018 08:16 PM 57.38 36.86 90.50 42.44 25.0 Not Reported 2.91 N 3.13 N 4.70 N x x Error:Lookup     0.000 0.000 0.000 0.000 0.000 Not Reported Not Reported
07/12/2018 08:31 PM 56.48 36.50 90.50 42.44 26.0 Not Reported 1.57 N 2.24 N 3.80 N x x Error:Lookup     0.000 0.000 0.000 0.000 0.000 Not Reported Not Reported
07/12/2018 08:46 PM 55.04 35.96 90.50 42.44 28.0 Not Reported 3.13 W 3.58 W 4.92 W x x Error:Lookup     0.000 0.000 0.000 0.000 0.000 Not Reported Not Reported
07/12/2018 09:01 PM 54.14 35.78 90.50 42.44 30.0 Not Reported 2.46 W 2.01 NW 4.25 W x x Error:Lookup     0.000 0.000 0.000 0.000 0.000 Not Reported Not Reported
07/12/2018 09:19 PM 53.06 36.14 90.50 42.44 33.0 Not Reported 2.24 W 2.24 W 3.80 W x x Error:Lookup     0.000 0.000 0.000 0.000 0.000 Not Reported Not Reported
07/12/2018 09:31 PM 52.16 36.50 90.50 42.44 35.0 Not Reported 2.68 SW 2.46 NW 4.03 SW x x Error:Lookup     0.000 0.000 0.000 0.000 0.000 Not Reported Not Reported
07/12/2018 09:46 PM 51.62 36.86 90.50 42.44 37.0 Not Reported 0.22 NW 0.00 NW 3.58 W x x Error:Lookup     0.000 0.000 0.000 0.000 0.000 Not Reported Not Reported
07/12/2018 10:03 PM 50.90 37.04 90.50 42.44 38.0 Not Reported 2.24 W 2.68 W 3.36 W x x Error:Lookup     0.000 0.000 0.000 0.000 0.000 Not Reported Not Reported
07/12/2018 10:16 PM 50.36 36.86 90.50 42.44 40.0 Not Reported 0.00 NW 0.00 W 2.46 W x x Error:Lookup     0.000 0.000 0.000 0.000 0.000 Not Reported Not Reported
07/12/2018 10:31 PM 49.64 36.68 90.50 42.44 41.0 Not Reported 0.45 W 0.45 SW 2.01 N x x Error:Lookup     0.000 0.000 0.000 0.000 0.000 Not Reported Not Reported
07/12/2018 10:47 PM 49.10 37.04 90.50 42.44 43.0 Not Reported 3.36 NE 2.24 NE 5.14 NE x x Error:Lookup     0.000 0.000 0.000 0.000 0.000 Not Reported Not Reported
07/12/2018 11:01 PM 48.20 36.50 90.50 42.44 45.0 Not Reported 2.24 SW 2.01 SW 3.80 SW x x Error:Lookup     0.000 0.000 0.000 0.000 0.000 Not Reported Not Reported
07/12/2018 11:17 PM 48.20 36.86 90.50 42.44 46.0 Not Reported 2.01 W 2.91 W 2.91 W x x Error:Lookup     0.000 0.000 0.000 0.000 0.000 Not Reported Not Reported
07/12/2018 11:31 PM 47.84 36.68 90.50 42.44 47.0 Not Reported 3.36 W 3.36 W 4.47 SW x x Error:Lookup     0.000 0.000 0.000 0.000 0.000 Not Reported Not Reported
07/12/2018 11:46 PM 48.20 37.40 90.50 42.44 47.0 Not Reported 1.79 W 3.36 W 4.70 W x x Error:Lookup     0.000 0.000 0.000 0.000 0.000 Not Reported Not Reported